createdAt,value
2022-12-13T00:01:57.254Z,20.00
2022-12-13T00:04:26.098Z,20.00
2022-12-13T00:06:57.158Z,20.00
2022-12-13T00:09:25.515Z,20.00
2022-12-13T00:11:55.288Z,20.10
2022-12-13T00:14:23.720Z,20.10
2022-12-13T00:16:51.448Z,20.10
2022-12-13T00:19:19.118Z,20.10
2022-12-13T00:21:46.727Z,20.10
2022-12-13T00:24:15.148Z,20.20
2022-12-13T00:26:42.815Z,20.20
2022-12-13T00:29:11.644Z,20.10
2022-12-13T00:34:27.320Z,20.20
2022-12-13T00:36:55.260Z,20.20
2022-12-13T00:39:22.875Z,20.20
2022-12-13T00:41:50.743Z,20.30
2022-12-13T00:44:20.199Z,20.30
2022-12-13T00:46:47.842Z,20.30
2022-12-13T00:49:15.438Z,20.30
2022-12-13T00:51:43.209Z,20.30
2022-12-13T00:54:12.026Z,20.30
2022-12-13T00:56:39.654Z,20.40
2022-12-13T00:59:07.189Z,20.40
2022-12-13T01:01:39.534Z,20.40
2022-12-13T01:04:08.241Z,20.40
2022-12-13T01:06:44.055Z,20.50
2022-12-13T01:09:19.342Z,20.50
2022-12-13T01:11:47.720Z,20.50
2022-12-13T01:14:15.628Z,20.50
2022-12-13T01:16:44.852Z,20.50
2022-12-13T01:19:12.704Z,20.60
2022-12-13T01:21:40.427Z,20.60
2022-12-13T01:24:08.298Z,20.70
2022-12-13T01:26:38.099Z,20.70
2022-12-13T01:29:06.544Z,20.80
2022-12-13T01:31:34.621Z,20.80
2022-12-13T01:34:10.741Z,20.90
2022-12-13T01:36:39.602Z,20.90
2022-12-13T01:39:14.895Z,21.00
2022-12-13T01:41:56.799Z,21.10
2022-12-13T01:44:42.771Z,21.10
2022-12-13T01:47:13.507Z,21.20
2022-12-13T01:49:41.488Z,21.20
2022-12-13T01:52:10.921Z,21.30
2022-12-13T01:54:46.619Z,21.30
2022-12-13T01:57:18.350Z,21.30
2022-12-13T01:59:46.570Z,21.40
2022-12-13T02:02:16.107Z,21.30
2022-12-13T02:04:57.363Z,21.40
2022-12-13T02:07:28.559Z,21.40
2022-12-13T02:10:01.691Z,21.40
2022-12-13T02:12:32.447Z,21.50
2022-12-13T02:15:15.218Z,21.50
2022-12-13T02:17:49.770Z,21.60
2022-12-13T02:20:35.764Z,21.60
2022-12-13T02:23:14.677Z,21.70
2022-12-13T02:25:52.069Z,21.70
2022-12-13T02:28:32.806Z,21.80
2022-12-13T02:31:06.665Z,21.80
2022-12-13T02:33:40.452Z,21.80
2022-12-13T02:36:25.234Z,21.90
2022-12-13T02:38:56.738Z,22.00
2022-12-13T02:41:30.114Z,22.00
2022-12-13T02:44:28.203Z,22.10
2022-12-13T02:46:57.593Z,22.20
2022-12-13T02:49:27.520Z,22.20
2022-12-13T02:51:55.777Z,22.30
2022-12-13T02:54:24.209Z,22.30
2022-12-13T02:56:59.009Z,22.30
2022-12-13T02:59:29.848Z,22.40
2022-12-13T03:02:10.223Z,22.40
2022-12-13T03:05:07.352Z,22.50
2022-12-13T03:07:42.630Z,22.50
2022-12-13T03:10:15.682Z,22.60
2022-12-13T03:13:09.952Z,22.60
2022-12-13T03:15:44.933Z,22.70
2022-12-13T03:18:18.615Z,22.80
2022-12-13T03:20:48.149Z,22.80
2022-12-13T03:23:16.656Z,22.80
2022-12-13T03:25:44.891Z,22.80
2022-12-13T03:28:13.180Z,22.90
2022-12-13T03:30:40.782Z,22.90
2022-12-13T03:33:08.358Z,23.00
2022-12-13T03:35:44.877Z,23.00
2022-12-13T03:38:22.974Z,23.00
2022-12-13T03:41:04.591Z,23.00
2022-12-13T03:43:32.226Z,23.10
2022-12-13T03:45:59.817Z,23.10
2022-12-13T03:48:28.002Z,23.10
2022-12-13T03:50:55.935Z,23.20
2022-12-13T03:53:33.641Z,23.30
2022-12-13T03:56:05.641Z,23.30
2022-12-13T03:58:37.361Z,23.40
2022-12-13T04:01:07.448Z,23.50
2022-12-13T04:03:38.774Z,23.60
2022-12-13T04:06:07.653Z,23.60
2022-12-13T04:08:36.278Z,23.60
2022-12-13T04:11:24.521Z,23.60
2022-12-13T04:13:57.337Z,23.70
2022-12-13T04:16:26.393Z,23.70
2022-12-13T04:18:54.980Z,23.80
2022-12-13T04:21:26.947Z,23.80
2022-12-13T04:23:57.385Z,23.80
2022-12-13T04:26:28.917Z,23.80
2022-12-13T04:28:56.670Z,23.90
2022-12-13T04:31:24.292Z,24.00
2022-12-13T04:33:52.069Z,24.00
2022-12-13T04:36:31.601Z,24.00
2022-12-13T04:39:21.976Z,24.10
2022-12-13T04:41:54.113Z,24.10
2022-12-13T04:44:27.544Z,24.10
2022-12-13T04:47:01.311Z,24.20
2022-12-13T04:49:32.852Z,24.20
2022-12-13T04:52:01.790Z,24.20
2022-12-13T04:54:36.447Z,24.30
2022-12-13T04:57:08.575Z,24.30
2022-12-13T04:59:36.898Z,24.30
2022-12-13T05:02:05.941Z,24.40
2022-12-13T05:04:37.853Z,24.40
2022-12-13T05:07:05.421Z,24.50
2022-12-13T05:09:33.000Z,24.50
2022-12-13T05:12:01.327Z,24.50
2022-12-13T05:14:32.596Z,24.60
2022-12-13T05:17:01.110Z,24.60
2022-12-13T05:19:30.683Z,24.60
2022-12-13T05:22:02.556Z,24.60
2022-12-13T05:24:33.691Z,24.70
2022-12-13T05:27:02.121Z,24.60
2022-12-13T05:29:56.173Z,24.70
2022-12-13T05:32:43.487Z,24.70
2022-12-13T05:35:23.134Z,24.70
2022-12-13T05:37:53.489Z,24.70
2022-12-13T05:40:29.304Z,24.80
2022-12-13T05:43:00.731Z,24.80
2022-12-13T05:45:32.387Z,24.80
2022-12-13T05:48:01.181Z,24.80
2022-12-13T05:50:28.726Z,24.90
2022-12-13T05:52:56.303Z,24.90
2022-12-13T05:55:24.874Z,25.00
2022-12-13T05:57:53.106Z,25.00
2022-12-13T06:00:31.068Z,25.00
2022-12-13T06:03:01.079Z,25.00
2022-12-13T06:05:29.960Z,25.00
2022-12-13T06:07:58.268Z,25.10
2022-12-13T06:10:35.059Z,25.20
2022-12-13T06:13:22.191Z,25.20
2022-12-13T06:16:03.472Z,25.20
2022-12-13T06:18:31.869Z,25.20
2022-12-13T06:21:00.572Z,25.20
2022-12-13T06:23:28.295Z,25.20
2022-12-13T06:25:55.919Z,25.20
2022-12-13T06:28:32.529Z,25.20
2022-12-13T06:31:01.366Z,25.20
2022-12-13T06:33:29.735Z,25.30
2022-12-13T06:36:02.490Z,25.20
2022-12-13T06:38:31.422Z,25.30
2022-12-13T06:41:12.580Z,25.30
2022-12-13T06:43:44.163Z,25.40
2022-12-13T06:46:12.029Z,25.40
2022-12-13T06:48:42.305Z,25.40
2022-12-13T06:51:10.411Z,25.50
2022-12-13T06:53:39.674Z,25.50
2022-12-13T06:56:08.976Z,25.50
2022-12-13T06:58:37.087Z,25.50
2022-12-13T07:01:06.529Z,25.50
2022-12-13T07:03:43.961Z,25.50
2022-12-13T07:06:17.983Z,25.60
2022-12-13T07:11:17.039Z,25.60
2022-12-13T07:13:47.924Z,25.60
2022-12-13T07:16:15.703Z,25.60
2022-12-13T07:18:46.575Z,25.60
2022-12-13T07:21:22.245Z,25.60
2022-12-13T07:23:55.090Z,25.60
2022-12-13T07:26:24.076Z,25.60
2022-12-13T07:28:55.319Z,25.60
2022-12-13T07:31:27.059Z,25.60
2022-12-13T07:33:54.891Z,25.60
2022-12-13T07:36:23.255Z,25.60
2022-12-13T07:38:52.428Z,25.60
2022-12-13T07:41:23.513Z,25.60
2022-12-13T07:43:54.777Z,25.60
2022-12-13T07:46:32.914Z,25.70
2022-12-13T08:21:51.955Z,25.80
2022-12-13T08:24:30.215Z,25.80
2022-12-13T08:27:02.812Z,25.80
2022-12-13T08:29:37.271Z,25.80
2022-12-13T08:32:11.619Z,25.80
2022-12-13T08:34:39.490Z,25.80
2022-12-13T08:37:07.349Z,25.80
2022-12-13T08:39:39.523Z,25.80
2022-12-13T08:42:19.498Z,25.80
2022-12-13T08:44:51.363Z,25.80
2022-12-13T08:47:23.436Z,25.80
2022-12-13T08:50:02.517Z,25.80
2022-12-13T08:52:40.649Z,25.80
2022-12-13T08:55:31.745Z,25.80
2022-12-13T08:58:01.266Z,25.80
2022-12-13T09:00:35.643Z,25.80
2022-12-13T09:03:10.080Z,25.80
2022-12-13T09:05:38.414Z,25.70
2022-12-13T09:08:24.895Z,25.70
2022-12-13T09:11:10.810Z,25.70
2022-12-13T09:13:43.779Z,25.70
2022-12-13T09:16:23.151Z,25.70
2022-12-13T09:18:55.223Z,25.70
2022-12-13T09:21:31.073Z,25.60
2022-12-13T09:24:01.778Z,25.60
2022-12-13T09:26:38.351Z,25.60
2022-12-13T09:29:10.344Z,25.60
2022-12-13T09:31:40.781Z,25.60
2022-12-13T09:34:09.380Z,25.60
2022-12-13T09:36:37.201Z,25.60
2022-12-13T09:39:08.272Z,25.60
2022-12-13T09:41:40.702Z,25.60
2022-12-13T09:44:32.348Z,25.60
2022-12-13T09:47:13.340Z,25.60
2022-12-13T09:49:53.172Z,25.60
2022-12-13T09:52:22.929Z,25.50
2022-12-13T09:54:55.240Z,25.60
2022-12-13T09:57:34.496Z,25.60
2022-12-13T10:00:05.535Z,25.50
2022-12-13T10:02:36.534Z,25.50
2022-12-13T10:05:22.974Z,25.40
2022-12-13T10:07:53.333Z,25.40
2022-12-13T10:10:21.819Z,25.40
2022-12-13T10:12:52.644Z,25.40
2022-12-13T10:15:21.729Z,25.30
2022-12-13T10:17:54.986Z,25.30
2022-12-13T10:20:27.097Z,25.20
2022-12-13T10:23:31.589Z,25.20
2022-12-13T10:25:50.939Z,25.20
2022-12-13T10:28:20.209Z,25.20
2022-12-13T10:30:48.458Z,25.10
2022-12-13T10:33:27.725Z,25.10
2022-12-13T10:36:04.813Z,25.10
2022-12-13T10:38:35.878Z,25.00
2022-12-13T10:41:03.801Z,25.00
2022-12-13T10:43:32.286Z,25.00
2022-12-13T10:46:04.279Z,25.00
2022-12-13T10:48:39.100Z,25.00
2022-12-13T10:51:06.989Z,25.00
2022-12-13T10:53:55.347Z,24.90
2022-12-13T10:56:24.000Z,24.90
2022-12-13T10:59:16.976Z,24.90
2022-12-13T11:01:45.131Z,24.90
2022-12-13T11:04:31.804Z,24.80
2022-12-13T11:07:28.609Z,24.80
2022-12-13T11:10:05.374Z,24.80
2022-12-13T11:12:34.694Z,24.80
2022-12-13T11:15:04.104Z,24.80
2022-12-13T11:17:34.180Z,24.70
2022-12-13T11:20:03.331Z,24.70
2022-12-13T11:22:35.044Z,24.80
2022-12-13T11:25:22.630Z,24.70
2022-12-13T11:27:50.328Z,24.70
2022-12-13T11:30:17.809Z,24.60
2022-12-13T11:32:45.914Z,24.60
2022-12-13T11:35:25.144Z,24.60
2022-12-13T11:37:53.423Z,24.60
2022-12-13T11:40:21.012Z,24.60
2022-12-13T11:43:08.794Z,24.60
2022-12-13T11:45:52.776Z,24.60
2022-12-13T11:48:25.960Z,24.60
2022-12-13T11:50:56.761Z,24.50
2022-12-13T11:53:30.216Z,24.50
2022-12-13T11:55:57.812Z,24.50
2022-12-13T11:59:02.585Z,24.50
2022-12-13T12:01:31.404Z,24.50
2022-12-13T12:04:08.664Z,24.50
2022-12-13T12:06:43.051Z,24.40
2022-12-13T12:09:14.358Z,24.40
2022-12-13T12:12:01.493Z,24.40
2022-12-13T12:14:36.210Z,24.30
2022-12-13T12:17:06.556Z,24.30
2022-12-13T12:19:38.818Z,24.30
2022-12-13T12:22:24.725Z,24.20
2022-12-13T12:25:01.133Z,24.20
2022-12-13T12:27:37.003Z,24.20
2022-12-13T12:30:08.475Z,24.20
2022-12-13T12:32:41.210Z,24.10
2022-12-13T12:35:27.186Z,24.10
2022-12-13T12:38:17.872Z,24.10
2022-12-13T12:41:14.689Z,24.00
2022-12-13T12:43:33.186Z,24.00
2022-12-13T12:46:11.848Z,24.00
2022-12-13T12:49:01.909Z,23.90
2022-12-13T12:51:48.702Z,23.90
2022-12-13T12:54:24.194Z,23.90
2022-12-13T12:57:05.133Z,23.80
2022-12-13T12:59:41.410Z,23.80
2022-12-13T13:02:18.165Z,23.70
2022-12-13T13:04:48.940Z,23.70
2022-12-13T13:07:23.331Z,23.70
2022-12-13T13:09:55.032Z,23.60
2022-12-13T13:12:29.654Z,23.60
2022-12-13T13:14:59.100Z,23.60
2022-12-13T13:17:26.651Z,23.50
2022-12-13T13:20:11.879Z,23.50
2022-12-13T13:22:43.348Z,23.50
2022-12-13T13:25:11.947Z,23.40
2022-12-13T13:27:47.281Z,23.40
2022-12-13T13:30:18.290Z,23.40
2022-12-13T13:32:46.412Z,23.40
2022-12-13T13:35:29.221Z,23.40
2022-12-13T13:37:58.522Z,23.40
2022-12-13T13:40:35.285Z,23.40
2022-12-13T13:43:03.036Z,23.50
2022-12-13T13:45:32.494Z,23.50
2022-12-13T13:48:16.213Z,23.50
2022-12-13T13:51:08.912Z,23.50
2022-12-13T13:54:00.118Z,23.50
2022-12-13T13:56:33.684Z,23.40
2022-12-13T13:59:03.975Z,23.40
2022-12-13T14:01:43.431Z,23.40
2022-12-13T14:04:22.934Z,23.40
2022-12-13T14:07:02.539Z,23.30
2022-12-13T14:09:38.604Z,23.30
2022-12-13T14:12:06.245Z,23.30
2022-12-13T14:14:38.620Z,23.30
2022-12-13T14:17:13.225Z,23.30
2022-12-13T14:19:56.553Z,23.30
2022-12-13T14:22:29.226Z,23.20
2022-12-13T14:25:14.864Z,23.20
2022-12-13T14:27:45.568Z,23.20
2022-12-13T14:30:27.936Z,23.20
2022-12-13T14:32:56.540Z,23.10
2022-12-13T14:35:26.927Z,23.10
2022-12-13T14:37:59.448Z,23.10
2022-12-13T14:40:29.597Z,23.10
2022-12-13T14:42:57.431Z,23.10
2022-12-13T14:45:32.024Z,23.10
2022-12-13T14:48:00.825Z,23.00
2022-12-13T14:50:30.909Z,23.00
2022-12-13T14:52:58.969Z,23.00
2022-12-13T14:55:26.526Z,23.00
2022-12-13T14:57:55.460Z,22.90
2022-12-13T15:00:31.304Z,22.90
2022-12-13T15:03:00.365Z,22.90
2022-12-13T15:05:50.348Z,22.90
2022-12-13T15:08:19.727Z,22.90
2022-12-13T15:10:53.474Z,22.90
2022-12-13T15:13:20.971Z,22.80
2022-12-13T15:15:53.035Z,22.80
2022-12-13T15:18:22.230Z,22.80
2022-12-13T15:20:51.372Z,22.80
2022-12-13T15:23:22.204Z,22.80
2022-12-13T15:26:01.364Z,22.70
2022-12-13T15:28:34.031Z,22.70
2022-12-13T15:31:02.179Z,22.70
2022-12-13T15:33:35.217Z,22.60
2022-12-13T15:36:14.342Z,22.60
2022-12-13T15:38:51.018Z,22.50
2022-12-13T15:41:19.458Z,22.60
2022-12-13T15:43:48.661Z,22.50
2022-12-13T15:46:23.873Z,22.40
2022-12-13T15:48:52.279Z,22.40
2022-12-13T15:51:28.721Z,22.40
2022-12-13T15:54:02.671Z,22.30
2022-12-13T15:56:36.297Z,22.20
2022-12-13T15:59:05.183Z,22.20
2022-12-13T16:01:37.225Z,22.20
2022-12-13T16:04:05.565Z,22.10
2022-12-13T16:06:33.964Z,22.10
2022-12-13T16:09:03.286Z,22.00
2022-12-13T16:11:34.755Z,22.00
2022-12-13T16:14:48.804Z,22.00
2022-12-13T16:17:25.520Z,21.90
2022-12-13T16:19:54.114Z,22.00
2022-12-13T16:22:24.513Z,21.80
2022-12-13T16:24:52.746Z,21.80
2022-12-13T16:27:20.623Z,21.80
2022-12-13T16:29:48.108Z,21.80
2022-12-13T16:32:15.792Z,21.70
2022-12-13T16:34:43.330Z,21.70
2022-12-13T16:37:26.455Z,21.70
2022-12-13T16:39:55.394Z,21.60
2022-12-13T16:42:26.119Z,21.60
2022-12-13T16:45:32.489Z,21.60
2022-12-13T16:47:50.085Z,21.60
2022-12-13T16:50:20.591Z,21.50
2022-12-13T16:52:48.767Z,21.50
2022-12-13T16:55:16.428Z,21.50
2022-12-13T16:57:44.656Z,21.50
2022-12-13T17:00:12.830Z,21.40
2022-12-13T17:02:41.145Z,21.40
2022-12-13T17:05:09.416Z,21.40
2022-12-13T17:07:37.495Z,21.40
2022-12-13T17:10:05.163Z,21.30
2022-12-13T17:12:32.678Z,21.30
2022-12-13T17:15:00.193Z,21.30
2022-12-13T17:17:29.166Z,21.30
2022-12-13T17:19:57.768Z,21.30
2022-12-13T17:22:25.409Z,21.30
2022-12-13T17:24:52.900Z,21.20
2022-12-13T17:27:20.422Z,21.20
2022-12-13T17:29:48.154Z,21.20
2022-12-13T17:32:15.637Z,21.20
2022-12-13T17:34:43.880Z,21.10
2022-12-13T17:37:11.374Z,21.10
2022-12-13T17:39:38.847Z,21.10
2022-12-13T17:42:06.540Z,21.10
2022-12-13T17:44:34.069Z,21.00
2022-12-13T17:47:02.022Z,21.00
2022-12-13T17:49:29.491Z,21.00
2022-12-13T17:51:57.290Z,21.00
2022-12-13T17:54:25.838Z,21.00
2022-12-13T17:56:54.044Z,21.00
2022-12-13T17:59:21.981Z,21.00
2022-12-13T18:01:49.578Z,21.00
2022-12-13T18:04:17.598Z,21.00
2022-12-13T18:06:45.138Z,20.90
2022-12-13T18:09:13.239Z,20.90
2022-12-13T18:11:41.060Z,20.90
2022-12-13T18:14:09.528Z,20.90
2022-12-13T18:16:39.132Z,20.90
2022-12-13T18:19:08.684Z,20.80
2022-12-13T18:21:37.166Z,20.80
2022-12-13T18:24:05.896Z,20.80
2022-12-13T18:26:33.776Z,20.80
2022-12-13T18:29:01.335Z,20.80
2022-12-13T18:31:28.954Z,20.80
2022-12-13T18:33:56.604Z,20.70
2022-12-13T18:36:25.188Z,20.70
2022-12-13T18:38:53.074Z,20.70
2022-12-13T18:41:22.124Z,20.70
2022-12-13T18:43:54.259Z,20.70
2022-12-13T18:46:21.985Z,20.60
2022-12-13T18:48:49.532Z,20.60
2022-12-13T18:51:17.090Z,20.50
2022-12-13T18:53:44.725Z,20.60
2022-12-13T18:56:18.284Z,20.50
2022-12-13T18:58:47.115Z,20.50
2022-12-13T19:01:16.051Z,20.50
2022-12-13T19:03:45.134Z,20.50
2022-12-13T19:06:16.811Z,20.50
2022-12-13T19:08:44.486Z,20.50
2022-12-13T19:11:12.126Z,20.50
2022-12-13T19:13:39.663Z,20.40
2022-12-13T19:16:08.895Z,20.40
2022-12-13T19:18:37.209Z,20.40
2022-12-13T19:21:07.060Z,20.30
2022-12-13T19:23:34.919Z,20.30
2022-12-13T19:26:06.694Z,20.30
2022-12-13T19:28:34.307Z,20.20
2022-12-13T19:31:05.656Z,20.30
2022-12-13T19:33:33.219Z,20.20
2022-12-13T19:36:01.210Z,20.20
2022-12-13T19:38:28.719Z,20.20
2022-12-13T19:40:56.189Z,20.20
2022-12-13T19:43:24.216Z,20.10
2022-12-13T19:45:52.048Z,20.10
2022-12-13T19:48:19.543Z,20.10
2022-12-13T19:50:47.548Z,20.00
2022-12-13T19:53:15.145Z,20.10
2022-12-13T19:55:44.150Z,20.00
2022-12-13T19:58:11.721Z,20.00
2022-12-13T20:00:39.420Z,20.00
2022-12-13T20:03:07.092Z,20.00
2022-12-13T20:05:35.881Z,20.00
2022-12-13T20:08:03.699Z,20.00
2022-12-13T20:10:33.605Z,20.00
2022-12-13T20:13:01.128Z,20.00
2022-12-13T20:15:28.714Z,20.00
2022-12-13T20:17:56.213Z,20.00
2022-12-13T20:20:31.456Z,20.00
2022-12-13T20:23:04.587Z,19.90
2022-12-13T20:25:32.059Z,19.90
2022-12-13T20:27:59.585Z,19.90
2022-12-13T20:30:27.129Z,19.90
2022-12-13T20:32:54.806Z,19.90
2022-12-13T20:35:22.291Z,19.90
2022-12-13T20:37:49.760Z,19.90
2022-12-13T20:40:20.463Z,19.90
2022-12-13T20:42:50.544Z,19.80
2022-12-13T20:45:18.046Z,19.80
2022-12-13T20:47:45.562Z,19.80
2022-12-13T20:50:13.039Z,19.80
2022-12-13T20:52:40.566Z,19.80
2022-12-13T20:55:08.252Z,19.80
2022-12-13T20:57:35.781Z,19.80
2022-12-13T21:00:04.032Z,19.80
2022-12-13T21:02:31.585Z,19.70
2022-12-13T21:04:59.087Z,19.70
2022-12-13T21:07:48.243Z,19.60
2022-12-13T21:10:15.939Z,19.70
2022-12-13T21:12:43.430Z,19.60
2022-12-13T21:15:10.997Z,19.60
2022-12-13T21:17:39.340Z,19.60
2022-12-13T21:20:06.993Z,19.60
2022-12-13T21:22:34.528Z,19.60
2022-12-13T21:25:02.094Z,19.60
2022-12-13T21:27:29.609Z,19.60
2022-12-13T21:29:57.125Z,19.60
2022-12-13T21:32:24.613Z,19.60
2022-12-13T21:34:52.082Z,19.60
2022-12-13T21:37:19.621Z,19.50
2022-12-13T21:39:47.151Z,19.50
2022-12-13T21:42:15.432Z,19.50
2022-12-13T21:44:42.952Z,19.40
2022-12-13T21:47:12.573Z,19.40
2022-12-13T21:49:41.992Z,19.30
2022-12-13T21:52:16.043Z,19.30
2022-12-13T21:54:43.517Z,19.30
2022-12-13T21:57:29.253Z,19.30
2022-12-13T21:59:56.827Z,19.30
2022-12-13T22:02:24.938Z,19.30
2022-12-13T22:04:56.152Z,19.30
2022-12-13T22:07:27.787Z,19.30
2022-12-13T22:09:55.998Z,19.20
2022-12-13T22:12:37.349Z,19.20
2022-12-13T22:15:06.788Z,19.20
2022-12-13T22:17:36.134Z,19.20
2022-12-13T22:20:05.393Z,19.20
2022-12-13T22:22:33.112Z,19.10
2022-12-13T22:25:00.606Z,19.10
2022-12-13T22:27:28.134Z,19.10
2022-12-13T22:29:59.321Z,19.10
2022-12-13T22:32:28.311Z,19.10
2022-12-13T22:34:55.804Z,19.00
2022-12-13T22:37:23.397Z,19.00
2022-12-13T22:39:51.204Z,19.00
2022-12-13T22:42:18.679Z,19.00
2022-12-13T22:44:46.285Z,19.00
2022-12-13T22:47:13.773Z,19.00
2022-12-13T22:49:41.325Z,18.90
2022-12-13T22:52:09.254Z,18.90
2022-12-13T22:54:39.486Z,18.90
2022-12-13T22:57:07.075Z,18.80
2022-12-13T22:59:34.663Z,18.80
2022-12-13T23:02:04.229Z,18.80
2022-12-13T23:04:32.144Z,18.70
2022-12-13T23:07:00.124Z,18.70
2022-12-13T23:09:27.682Z,18.70
2022-12-13T23:12:13.996Z,18.70
2022-12-13T23:14:41.533Z,18.70
2022-12-13T23:17:09.601Z,18.60
2022-12-13T23:19:50.980Z,18.60
2022-12-13T23:22:24.076Z,18.60
2022-12-13T23:24:51.961Z,18.60
2022-12-13T23:27:20.480Z,18.60
2022-12-13T23:29:47.970Z,18.60
2022-12-13T23:32:15.754Z,18.60
2022-12-13T23:34:43.349Z,18.60
2022-12-13T23:37:13.876Z,18.60
2022-12-13T23:39:41.822Z,18.60
2022-12-13T23:42:10.514Z,18.60
2022-12-13T23:44:38.010Z,18.60
2022-12-13T23:47:05.546Z,18.60
2022-12-13T23:49:33.110Z,18.60
2022-12-13T23:52:00.658Z,18.60
2022-12-13T23:54:28.143Z,18.60
2022-12-13T23:56:57.246Z,18.60
2022-12-13T23:59:26.252Z,18.60
